createdAt,value
2022-12-15T00:02:45.694Z,57.65
2022-12-15T00:05:31.009Z,54.05
2022-12-15T00:08:23.944Z,52.80
2022-12-15T00:13:54.595Z,48.15
2022-12-15T00:16:40.082Z,48.17
2022-12-15T00:19:25.370Z,55.55
2022-12-15T00:22:10.644Z,61.75
2022-12-15T00:24:56.122Z,51.53
2022-12-15T00:27:41.802Z,54.88
2022-12-15T00:30:28.469Z,51.28
2022-12-15T00:33:14.133Z,55.67
2022-12-15T00:35:59.770Z,57.83
2022-12-15T00:38:44.816Z,53.90
2022-12-15T00:41:13.617Z,54.95
2022-12-15T00:43:40.422Z,56.38
2022-12-15T00:46:26.695Z,59.83
2022-12-15T00:48:53.531Z,58.22
2022-12-15T00:51:20.811Z,59.05
2022-12-15T00:54:06.310Z,61.15
2022-12-15T00:56:51.861Z,54.42
2022-12-15T00:59:37.294Z,52.25
2022-12-15T01:02:22.913Z,55.60
2022-12-15T01:05:08.577Z,58.83
2022-12-15T01:07:53.961Z,62.58
2022-12-15T01:10:39.529Z,48.28
2022-12-15T01:13:25.105Z,60.20
2022-12-15T01:16:10.723Z,51.50
2022-12-15T01:18:56.026Z,55.63
2022-12-15T01:21:24.841Z,52.22
2022-12-15T01:23:52.707Z,54.30
2022-12-15T01:26:20.199Z,55.50
2022-12-15T01:28:46.973Z,60.45
2022-12-15T01:31:14.475Z,52.53
2022-12-15T01:33:43.518Z,59.33
2022-12-15T01:36:10.774Z,55.80
2022-12-15T01:38:37.783Z,51.72
2022-12-15T01:41:10.919Z,58.55
2022-12-15T01:43:40.191Z,55.33
2022-12-15T01:46:11.318Z,54.03
2022-12-15T01:48:57.374Z,55.47
2022-12-15T01:51:32.814Z,54.30
2022-12-15T01:54:15.085Z,55.20
2022-12-15T01:56:45.469Z,54.63
2022-12-15T01:59:27.187Z,55.95
2022-12-15T02:01:54.164Z,53.47
2022-12-15T02:04:23.671Z,50.38
2022-12-15T02:06:50.697Z,47.00
2022-12-15T02:09:19.238Z,57.50
2022-12-15T02:12:10.423Z,58.60
2022-12-15T02:14:37.110Z,48.60
2022-12-15T02:17:21.871Z,51.67
2022-12-15T02:20:17.890Z,58.33
2022-12-15T02:22:50.517Z,60.30
2022-12-15T02:25:38.237Z,49.42
2022-12-15T02:28:10.388Z,49.50
2022-12-15T02:31:17.402Z,50.15
2022-12-15T02:34:13.681Z,53.00
2022-12-15T02:36:45.418Z,52.88
2022-12-15T02:39:12.910Z,52.55
2022-12-15T02:41:46.085Z,53.60
2022-12-15T02:44:19.522Z,60.15
2022-12-15T02:47:15.943Z,54.85
2022-12-15T02:50:00.992Z,54.20
2022-12-15T02:53:07.464Z,53.63
2022-12-15T02:55:50.362Z,51.38
2022-12-15T02:58:23.788Z,50.25
2022-12-15T03:01:01.141Z,63.28
2022-12-15T03:03:31.233Z,50.30
2022-12-15T03:05:58.328Z,52.25
2022-12-15T03:08:25.111Z,54.22
2022-12-15T03:10:53.268Z,58.00
2022-12-15T03:13:20.162Z,56.67
2022-12-15T03:15:46.984Z,51.88
2022-12-15T03:18:13.809Z,55.65
2022-12-15T03:20:40.527Z,47.30
2022-12-15T03:23:07.485Z,49.88
2022-12-15T03:25:34.417Z,49.38
2022-12-15T03:28:01.219Z,51.97
2022-12-15T03:30:28.013Z,58.38
2022-12-15T03:32:54.780Z,52.55
2022-12-15T03:35:21.720Z,53.40
2022-12-15T03:37:48.607Z,54.40
2022-12-15T03:40:16.842Z,55.63
2022-12-15T03:42:49.607Z,48.38
2022-12-15T03:45:24.683Z,58.45
2022-12-15T03:47:52.388Z,57.58
2022-12-15T03:50:25.319Z,55.60
2022-12-15T03:52:54.097Z,47.75
2022-12-15T03:55:21.754Z,48.85
2022-12-15T03:57:48.587Z,58.38
2022-12-15T04:00:16.349Z,47.33
2022-12-15T04:02:43.741Z,55.97
2022-12-15T04:05:18.587Z,54.03
2022-12-15T04:07:45.404Z,53.67
2022-12-15T04:10:12.621Z,54.03
2022-12-15T04:12:42.444Z,61.03
2022-12-15T04:15:10.638Z,52.25
2022-12-15T04:17:37.738Z,50.17
2022-12-15T04:20:09.387Z,51.63
2022-12-15T04:22:43.318Z,57.25
2022-12-15T04:25:31.495Z,58.10
2022-12-15T04:28:17.050Z,51.75
2022-12-15T04:31:12.742Z,49.47
2022-12-15T04:34:03.158Z,52.55
2022-12-15T04:36:50.143Z,55.33
2022-12-15T04:39:35.658Z,54.38
2022-12-15T04:42:21.638Z,57.55
2022-12-15T04:45:15.512Z,59.58
2022-12-15T04:48:04.107Z,51.00
2022-12-15T04:50:49.765Z,58.83
2022-12-15T04:53:36.977Z,57.88
2022-12-15T04:56:23.776Z,55.83
2022-12-15T04:59:09.258Z,53.47
2022-12-15T05:01:54.803Z,48.42
2022-12-15T05:04:40.207Z,51.10
2022-12-15T05:07:25.410Z,55.05
2022-12-15T05:10:14.893Z,55.50
2022-12-15T05:13:01.501Z,56.33
2022-12-15T05:15:47.008Z,51.58
2022-12-15T05:18:32.712Z,51.92
2022-12-15T05:21:18.193Z,55.17
2022-12-15T05:24:03.623Z,53.30
2022-12-15T05:26:52.731Z,52.75
2022-12-15T05:29:39.166Z,54.63
2022-12-15T05:32:07.001Z,47.58
2022-12-15T05:34:35.439Z,52.42
2022-12-15T05:37:04.496Z,48.72
2022-12-15T05:39:31.254Z,55.50
2022-12-15T05:41:58.005Z,53.80
2022-12-15T05:44:26.167Z,52.65
2022-12-15T05:46:53.336Z,51.53
2022-12-15T05:49:20.333Z,54.75
2022-12-15T05:51:48.198Z,54.53
2022-12-15T05:54:18.154Z,48.53
2022-12-15T05:56:45.477Z,58.78
2022-12-15T05:59:13.044Z,53.72
2022-12-15T06:01:40.037Z,54.33
2022-12-15T06:04:07.489Z,59.63
2022-12-15T06:06:34.275Z,50.65
2022-12-15T06:09:01.029Z,53.22
2022-12-15T06:11:27.915Z,53.20
2022-12-15T06:13:55.853Z,50.22
2022-12-15T06:16:24.342Z,53.20
2022-12-15T06:18:59.444Z,51.42
2022-12-15T06:21:32.138Z,52.47
2022-12-15T06:24:00.747Z,50.42
2022-12-15T06:26:33.786Z,60.30
2022-12-15T06:29:05.311Z,51.67
2022-12-15T06:31:33.932Z,52.80
2022-12-15T06:34:13.165Z,57.65
2022-12-15T06:36:40.425Z,54.42
2022-12-15T06:39:10.540Z,57.72
2022-12-15T06:41:37.825Z,48.80
2022-12-15T06:44:05.361Z,54.08
2022-12-15T06:46:33.690Z,54.38
2022-12-15T06:49:01.097Z,58.33
2022-12-15T06:51:28.747Z,66.15
2022-12-15T06:53:56.318Z,60.92
2022-12-15T06:56:33.104Z,69.70
2022-12-15T06:59:01.852Z,72.20
2022-12-15T07:01:29.373Z,70.85
2022-12-15T07:03:57.010Z,76.28
2022-12-15T07:06:24.041Z,80.65
2022-12-15T07:08:56.468Z,73.65
2022-12-15T07:13:51.347Z,68.50
2022-12-15T07:16:18.878Z,94.82
2022-12-15T07:18:45.782Z,92.15
2022-12-15T07:21:12.721Z,79.53
2022-12-15T07:23:54.238Z,95.20
2022-12-15T07:26:22.436Z,97.53
2022-12-15T07:28:49.330Z,99.13
2022-12-15T07:31:16.184Z,108.80
2022-12-15T07:33:43.549Z,121.07
2022-12-15T07:36:10.988Z,114.15
2022-12-15T07:38:38.255Z,109.75
2022-12-15T07:41:07.427Z,105.88
2022-12-15T07:43:35.249Z,132.65
2022-12-15T07:46:02.705Z,129.90
2022-12-15T07:48:29.918Z,130.52
2022-12-15T07:51:08.365Z,124.65
2022-12-15T07:53:37.225Z,119.18
2022-12-15T07:56:07.891Z,123.65
2022-12-15T07:58:35.969Z,120.30
2022-12-15T08:01:08.388Z,120.05
2022-12-15T08:06:05.489Z,110.93
2022-12-15T08:08:33.434Z,122.30
2022-12-15T08:11:11.604Z,120.82
2022-12-15T08:16:26.475Z,129.40
2022-12-15T08:18:53.887Z,130.30
2022-12-15T08:21:20.613Z,123.07
2022-12-15T08:23:47.822Z,125.47
2022-12-15T08:26:16.824Z,130.27
2022-12-15T08:28:44.618Z,114.53
2022-12-15T08:31:20.141Z,121.30
2022-12-15T08:33:47.764Z,129.40
2022-12-15T08:36:17.540Z,134.00
2022-12-15T08:38:45.661Z,139.38
2022-12-15T08:41:16.044Z,131.65
2022-12-15T08:43:48.060Z,144.93
2022-12-15T08:46:21.117Z,136.82
2022-12-15T08:48:48.659Z,135.50
2022-12-15T08:51:16.324Z,135.23
2022-12-15T08:53:43.554Z,141.82
2022-12-15T08:56:13.350Z,132.40
2022-12-15T08:58:40.517Z,129.23
2022-12-15T09:01:16.086Z,149.05
2022-12-15T09:03:47.542Z,134.93
2022-12-15T09:06:17.860Z,144.05
2022-12-15T09:08:44.964Z,142.57
2022-12-15T09:11:17.435Z,145.75
2022-12-15T09:13:44.472Z,134.85
2022-12-15T09:16:16.784Z,126.68
2022-12-15T09:18:45.445Z,129.63
2022-12-15T09:21:12.998Z,137.25
2022-12-15T09:23:40.862Z,132.13
2022-12-15T09:26:09.935Z,137.07
2022-12-15T09:28:38.242Z,133.18
2022-12-15T09:31:11.747Z,134.80
2022-12-15T09:33:39.739Z,124.55
2022-12-15T09:36:07.778Z,124.63
2022-12-15T09:38:35.715Z,124.93
2022-12-15T09:41:13.612Z,116.30
2022-12-15T09:43:50.793Z,132.65
2022-12-15T09:46:26.820Z,130.65
2022-12-15T09:48:55.938Z,123.53
2022-12-15T09:51:33.339Z,121.40
2022-12-15T09:54:00.693Z,117.32
2022-12-15T09:56:42.568Z,119.10
2022-12-15T09:59:36.811Z,126.75
2022-12-15T10:02:33.223Z,117.82
2022-12-15T10:04:59.937Z,111.72
2022-12-15T10:07:42.282Z,112.82
2022-12-15T10:10:29.878Z,116.85
2022-12-15T10:13:02.942Z,116.05
2022-12-15T10:15:37.921Z,123.45
2022-12-15T10:18:20.232Z,118.22
2022-12-15T10:20:48.457Z,127.75
2022-12-15T10:23:17.721Z,123.22
2022-12-15T10:25:58.141Z,119.90
2022-12-15T10:29:09.173Z,116.10
2022-12-15T10:31:54.311Z,115.93
2022-12-15T10:34:34.386Z,125.88
2022-12-15T10:37:01.269Z,127.85
2022-12-15T10:39:42.606Z,123.65
2022-12-15T10:42:46.109Z,132.23
2022-12-15T10:45:35.753Z,119.72
2022-12-15T10:48:04.053Z,127.88
2022-12-15T10:50:30.914Z,127.90
2022-12-15T10:52:57.805Z,106.07
2022-12-15T10:55:43.026Z,102.05
2022-12-15T10:58:21.837Z,105.25
2022-12-15T11:01:05.221Z,108.38
2022-12-15T11:03:37.986Z,103.82
2022-12-15T11:06:15.703Z,103.88
2022-12-15T11:08:44.200Z,106.25
2022-12-15T11:12:00.945Z,102.40
2022-12-15T11:14:41.251Z,106.95
2022-12-15T11:17:08.098Z,95.88
2022-12-15T11:20:01.971Z,100.82
2022-12-15T11:22:46.250Z,106.13
2022-12-15T11:25:34.005Z,99.38
2022-12-15T11:28:06.864Z,99.32
2022-12-15T11:30:42.445Z,94.90
2022-12-15T11:33:10.489Z,90.07
2022-12-15T11:35:46.361Z,92.28
2022-12-15T11:38:43.636Z,95.75
2022-12-15T11:41:50.380Z,94.25
2022-12-15T11:44:25.041Z,90.10
2022-12-15T11:46:57.161Z,87.93
2022-12-15T11:49:26.720Z,88.38
2022-12-15T11:52:03.588Z,84.95
2022-12-15T11:54:35.338Z,85.57
2022-12-15T11:57:20.897Z,86.73
2022-12-15T12:00:09.225Z,86.90
2022-12-15T12:03:15.864Z,81.07
2022-12-15T12:05:59.426Z,85.72
2022-12-15T12:08:36.350Z,80.38
2022-12-15T12:11:12.249Z,84.45
2022-12-15T12:13:46.629Z,78.88
2022-12-15T12:16:42.023Z,79.10
2022-12-15T12:19:19.361Z,76.55
2022-12-15T12:21:50.928Z,71.75
2022-12-15T12:24:30.854Z,80.70
2022-12-15T12:27:12.680Z,74.88
2022-12-15T12:30:14.423Z,75.10
2022-12-15T12:32:51.442Z,78.40
2022-12-15T12:35:30.317Z,82.93
2022-12-15T12:38:05.677Z,74.97
2022-12-15T12:40:46.884Z,81.97
2022-12-15T12:43:23.213Z,75.60
2022-12-15T12:46:04.095Z,75.05
2022-12-15T12:48:48.540Z,71.43
2022-12-15T12:51:30.721Z,75.82
2022-12-15T12:53:59.515Z,81.60
2022-12-15T12:56:48.664Z,78.18
2022-12-15T12:59:29.419Z,68.53
2022-12-15T13:02:31.682Z,69.55
2022-12-15T13:04:59.978Z,72.85
2022-12-15T13:07:36.376Z,71.95
2022-12-15T13:10:09.584Z,75.28
2022-12-15T13:12:53.565Z,68.75
2022-12-15T13:15:29.688Z,70.47
2022-12-15T13:18:12.470Z,71.20
2022-12-15T13:20:40.309Z,72.85
2022-12-15T13:23:22.637Z,73.70
2022-12-15T13:25:59.055Z,71.85
2022-12-15T13:28:29.427Z,71.78
2022-12-15T13:31:21.464Z,77.78
2022-12-15T13:33:52.335Z,82.45
2022-12-15T13:36:38.232Z,75.20
2022-12-15T13:39:27.858Z,80.00
2022-12-15T13:44:57.766Z,73.35
2022-12-15T13:47:30.736Z,89.13
2022-12-15T13:50:06.289Z,82.63
2022-12-15T13:55:37.918Z,76.85
2022-12-15T13:58:17.383Z,85.05
2022-12-15T14:00:56.930Z,84.85
2022-12-15T14:03:24.469Z,85.18
2022-12-15T14:05:59.985Z,81.10
2022-12-15T14:08:29.754Z,87.03
2022-12-15T14:11:00.050Z,85.47
2022-12-15T14:13:31.387Z,85.07
2022-12-15T14:16:14.030Z,79.45
2022-12-15T14:18:43.207Z,90.15
2022-12-15T14:21:25.703Z,84.38
2022-12-15T14:24:28.277Z,77.82
2022-12-15T14:26:43.212Z,104.22
2022-12-15T14:29:10.580Z,93.97
2022-12-15T14:31:38.090Z,83.53
2022-12-15T14:34:18.611Z,87.20
2022-12-15T14:36:46.150Z,85.38
2022-12-15T14:39:31.093Z,81.40
2022-12-15T14:41:59.069Z,90.25
2022-12-15T14:44:40.071Z,84.75
2022-12-15T14:47:35.313Z,85.10
2022-12-15T14:50:03.964Z,88.93
2022-12-15T14:52:35.671Z,84.00
2022-12-15T14:55:23.613Z,92.33
2022-12-15T14:57:52.451Z,100.05
2022-12-15T15:00:22.943Z,97.63
2022-12-15T15:02:49.839Z,96.45
2022-12-15T15:05:28.000Z,91.93
2022-12-15T15:07:56.764Z,92.57
2022-12-15T15:10:29.502Z,100.00
2022-12-15T15:12:56.386Z,92.63
2022-12-15T15:15:26.640Z,119.47
2022-12-15T15:17:59.450Z,114.05
2022-12-15T15:20:29.291Z,108.72
2022-12-15T15:23:08.102Z,110.85
2022-12-15T15:25:41.313Z,110.38
2022-12-15T15:28:20.418Z,103.38
2022-12-15T15:30:56.027Z,95.57
2022-12-15T15:33:24.517Z,99.65
2022-12-15T15:35:56.915Z,99.82
2022-12-15T15:38:34.887Z,101.57
2022-12-15T15:41:15.695Z,100.32
2022-12-15T15:43:43.209Z,103.63
2022-12-15T15:46:22.557Z,98.82
2022-12-15T15:48:59.573Z,112.30
2022-12-15T15:51:27.965Z,96.78
2022-12-15T15:53:59.929Z,101.97
2022-12-15T15:56:27.578Z,121.75
2022-12-15T15:58:54.427Z,115.82
2022-12-15T16:01:21.177Z,121.85
2022-12-15T16:03:48.073Z,113.95
2022-12-15T16:06:20.624Z,106.20
2022-12-15T16:08:52.073Z,101.15
2022-12-15T16:11:20.095Z,101.63
2022-12-15T16:13:47.067Z,102.47
2022-12-15T16:16:19.705Z,105.40
2022-12-15T16:18:46.580Z,106.53
2022-12-15T16:21:15.118Z,102.53
2022-12-15T16:23:44.610Z,102.80
2022-12-15T16:26:25.622Z,100.97
2022-12-15T16:28:52.391Z,105.22
2022-12-15T16:31:32.774Z,111.78
2022-12-15T16:34:05.783Z,107.18
2022-12-15T16:36:33.195Z,102.93
2022-12-15T16:38:59.964Z,107.05
2022-12-15T16:41:27.811Z,114.10
2022-12-15T16:43:54.684Z,108.35
2022-12-15T16:46:21.493Z,114.30
2022-12-15T16:48:48.477Z,102.57
2022-12-15T16:51:46.755Z,107.47
2022-12-15T16:54:44.841Z,101.47
2022-12-15T16:57:12.114Z,104.53
2022-12-15T16:59:38.866Z,99.55
2022-12-15T17:02:27.973Z,102.93
2022-12-15T17:04:55.536Z,106.47
2022-12-15T17:07:23.743Z,101.82
2022-12-15T17:09:51.076Z,107.95
2022-12-15T17:12:18.649Z,101.97
2022-12-15T17:14:46.147Z,103.75
2022-12-15T17:17:15.492Z,107.00
2022-12-15T17:19:57.875Z,99.40
2022-12-15T17:22:29.341Z,105.72
2022-12-15T17:24:56.113Z,98.40
2022-12-15T17:27:28.604Z,107.85
2022-12-15T17:32:23.194Z,102.47
2022-12-15T17:34:50.209Z,107.35
2022-12-15T17:37:17.144Z,106.55
2022-12-15T17:39:50.792Z,105.78
2022-12-15T17:42:20.406Z,109.78
2022-12-15T17:44:48.268Z,112.68
2022-12-15T17:47:16.572Z,107.53
2022-12-15T17:49:43.872Z,104.95
2022-12-15T17:52:19.052Z,111.28
2022-12-15T17:54:45.927Z,114.45
2022-12-15T17:57:12.852Z,108.72
2022-12-15T17:59:39.628Z,105.28
2022-12-15T18:02:06.699Z,107.18
2022-12-15T18:04:33.581Z,123.45
2022-12-15T18:07:02.316Z,116.78
2022-12-15T18:09:29.824Z,123.32
2022-12-15T18:11:56.659Z,119.95
2022-12-15T18:14:23.694Z,112.32
2022-12-15T18:16:50.638Z,120.15
2022-12-15T18:19:17.417Z,116.93
2022-12-15T18:21:44.361Z,115.07
2022-12-15T18:24:17.045Z,124.57
2022-12-15T18:26:44.373Z,117.97
2022-12-15T18:29:18.066Z,113.15
2022-12-15T18:31:48.196Z,118.90
2022-12-15T18:34:21.156Z,114.55
2022-12-15T18:36:48.461Z,106.35
2022-12-15T18:39:19.584Z,117.00
2022-12-15T18:41:47.011Z,120.18
2022-12-15T18:44:23.951Z,118.78
2022-12-15T18:46:51.048Z,134.00
2022-12-15T18:49:19.325Z,122.93
2022-12-15T18:51:46.953Z,144.63
2022-12-15T18:54:22.839Z,130.07
2022-12-15T18:56:50.183Z,180.45
2022-12-15T18:59:19.273Z,149.75
2022-12-15T19:01:49.602Z,163.57
2022-12-15T19:04:16.603Z,157.50
2022-12-15T19:06:44.390Z,132.63
2022-12-15T19:09:23.225Z,129.77
2022-12-15T19:12:16.663Z,127.57
2022-12-15T19:14:45.237Z,131.85
2022-12-15T19:17:35.775Z,200.18
2022-12-15T19:20:25.234Z,179.30
2022-12-15T19:22:52.685Z,137.57
2022-12-15T19:25:26.712Z,130.93
2022-12-15T19:28:01.289Z,113.65
2022-12-15T19:30:31.282Z,133.20
2022-12-15T19:32:58.125Z,127.35
2022-12-15T19:35:27.303Z,133.45
2022-12-15T19:37:57.329Z,121.68
2022-12-15T19:40:30.643Z,129.98
2022-12-15T19:42:58.850Z,533.33
2022-12-15T19:45:27.962Z,180.68
2022-12-15T19:47:55.302Z,146.40
2022-12-15T19:50:24.716Z,133.57
2022-12-15T19:53:01.602Z,139.35
2022-12-15T19:55:32.802Z,131.45
2022-12-15T19:58:01.355Z,127.22
2022-12-15T20:00:28.241Z,131.13
2022-12-15T20:02:55.882Z,123.78
2022-12-15T20:05:24.489Z,119.68
2022-12-15T20:07:54.669Z,130.43
2022-12-15T20:10:31.963Z,124.85
2022-12-15T20:13:00.558Z,118.00
2022-12-15T20:15:27.655Z,122.43
2022-12-15T20:17:57.776Z,126.32
2022-12-15T20:20:27.615Z,121.68
2022-12-15T20:22:57.566Z,117.75
2022-12-15T20:25:27.924Z,122.93
2022-12-15T20:27:55.388Z,123.78
2022-12-15T20:30:25.395Z,123.35
2022-12-15T20:32:52.398Z,123.60
2022-12-15T20:35:21.698Z,132.45
2022-12-15T20:37:49.431Z,113.65
2022-12-15T20:40:22.581Z,120.50
2022-12-15T20:42:50.323Z,110.38
2022-12-15T20:45:19.847Z,108.25
2022-12-15T20:47:49.228Z,109.20
2022-12-15T20:50:35.323Z,117.95
2022-12-15T20:53:02.830Z,114.47
2022-12-15T20:55:30.211Z,123.30
2022-12-15T20:57:56.966Z,110.78
2022-12-15T21:00:23.789Z,112.00
2022-12-15T21:02:52.103Z,106.85
2022-12-15T21:05:24.600Z,111.93
2022-12-15T21:07:52.006Z,115.38
2022-12-15T21:10:20.147Z,120.53
2022-12-15T21:12:49.064Z,127.78
2022-12-15T21:15:19.417Z,120.45
2022-12-15T21:17:46.942Z,123.80
2022-12-15T21:20:14.431Z,133.13
2022-12-15T21:22:41.839Z,119.53
2022-12-15T21:25:25.835Z,121.38
2022-12-15T21:27:52.979Z,117.03
2022-12-15T21:30:22.351Z,112.43
2022-12-15T21:32:50.353Z,108.78
2022-12-15T21:35:18.571Z,115.72
2022-12-15T21:37:48.260Z,120.70
2022-12-15T21:40:20.543Z,109.90
2022-12-15T21:42:48.787Z,109.80
2022-12-15T21:45:17.575Z,109.43
2022-12-15T21:48:03.380Z,106.85
2022-12-15T21:50:30.153Z,122.65
2022-12-15T21:52:56.935Z,112.95
2022-12-15T21:55:26.854Z,113.65
2022-12-15T21:57:54.910Z,108.93
2022-12-15T22:00:22.366Z,109.97
2022-12-15T22:02:51.282Z,114.07
2022-12-15T22:05:20.476Z,110.53
2022-12-15T22:07:48.044Z,113.05
2022-12-15T22:10:15.500Z,136.57
2022-12-15T22:12:44.273Z,132.82
2022-12-15T22:15:24.089Z,116.90
2022-12-15T22:17:50.884Z,117.05
2022-12-15T22:20:23.894Z,110.00
2022-12-15T22:22:51.213Z,116.90
2022-12-15T22:25:20.493Z,104.40
2022-12-15T22:27:47.944Z,118.03
2022-12-15T22:30:28.042Z,104.93
2022-12-15T22:32:54.890Z,114.60
2022-12-15T22:35:24.697Z,110.13
2022-12-15T22:37:56.075Z,105.00
2022-12-15T22:40:24.198Z,103.95
2022-12-15T22:42:55.045Z,110.47
2022-12-15T22:45:24.009Z,98.22
2022-12-15T22:47:52.390Z,103.47
2022-12-15T22:50:23.651Z,115.47
2022-12-15T22:52:50.963Z,104.55
2022-12-15T22:55:20.464Z,112.75
2022-12-15T22:57:59.496Z,107.32
2022-12-15T23:00:26.416Z,104.40
2022-12-15T23:02:53.370Z,110.40
2022-12-15T23:05:20.737Z,99.90
2022-12-15T23:07:47.556Z,100.07
2022-12-15T23:10:36.542Z,101.72
2022-12-15T23:13:03.463Z,110.13
2022-12-15T23:15:50.284Z,112.10
2022-12-15T23:18:18.507Z,109.18
2022-12-15T23:20:45.503Z,105.43
2022-12-15T23:23:12.471Z,108.38
2022-12-15T23:25:39.213Z,103.03
2022-12-15T23:28:06.049Z,108.68
2022-12-15T23:30:32.828Z,113.28
2022-12-15T23:32:59.827Z,94.13
2022-12-15T23:35:26.977Z,104.95
2022-12-15T23:37:53.748Z,98.70
2022-12-15T23:40:22.287Z,103.95
2022-12-15T23:42:50.457Z,92.07
2022-12-15T23:45:18.199Z,100.03
2022-12-15T23:47:45.136Z,100.20
2022-12-15T23:50:11.937Z,96.25
2022-12-15T23:52:38.713Z,95.65
2022-12-15T23:55:08.040Z,98.65
2022-12-15T23:57:35.452Z,98.95
